createdAt,value
2019-06-20T00:00:11.333Z,100.00
2019-06-20T00:02:40.400Z,100.00
2019-06-20T00:05:09.899Z,100.00
2019-06-20T00:07:39.240Z,100.00
2019-06-20T00:10:08.728Z,100.00
2019-06-20T00:12:37.798Z,100.00
2019-06-20T00:15:07.658Z,100.00
2019-06-20T00:17:37.068Z,100.00
2019-06-20T00:20:06.414Z,100.00
2019-06-20T00:22:35.594Z,100.00
2019-06-20T00:25:05.459Z,100.00
2019-06-20T00:27:34.517Z,100.00
2019-06-20T00:30:04.087Z,100.00
2019-06-20T00:32:33.267Z,100.00
2019-06-20T00:35:02.305Z,100.00
2019-06-20T00:37:31.380Z,100.00
2019-06-20T00:40:00.450Z,100.00
2019-06-20T00:42:29.715Z,100.00
2019-06-20T00:44:58.839Z,100.00
2019-06-20T00:47:28.558Z,100.00
2019-06-20T00:49:57.928Z,100.00
2019-06-20T00:52:27.053Z,100.00
2019-06-20T00:54:56.743Z,100.00
2019-06-20T00:57:26.072Z,100.00
2019-06-20T00:59:55.284Z,100.00
2019-06-20T01:02:24.337Z,100.00
2019-06-20T01:04:53.374Z,100.00
2019-06-20T01:07:22.417Z,100.00
2019-06-20T01:09:51.858Z,100.00
2019-06-20T01:12:21.400Z,100.00
2019-06-20T01:14:50.445Z,100.00
2019-06-20T01:17:19.488Z,100.00
2019-06-20T01:19:48.655Z,100.00
2019-06-20T01:22:17.760Z,100.00
2019-06-20T01:24:46.847Z,100.00
2019-06-20T01:27:15.986Z,100.00
2019-06-20T01:29:45.065Z,100.00
2019-06-20T01:32:14.148Z,100.00
2019-06-20T01:34:43.177Z,100.00
2019-06-20T01:37:12.230Z,100.00
2019-06-20T01:39:41.282Z,100.00
2019-06-20T01:42:10.327Z,100.00
2019-06-20T01:44:39.720Z,100.00
2019-06-20T01:47:08.909Z,100.00
2019-06-20T01:49:37.977Z,100.00
2019-06-20T01:52:07.016Z,100.00
2019-06-20T01:54:36.063Z,100.00
2019-06-20T01:57:05.084Z,100.00
2019-06-20T01:59:34.141Z,100.00
2019-06-20T02:02:03.366Z,100.00
2019-06-20T02:04:32.766Z,100.00
2019-06-20T02:07:01.873Z,100.00
2019-06-20T02:09:30.935Z,100.00
2019-06-20T02:12:00.069Z,100.00
2019-06-20T02:14:29.686Z,100.00
2019-06-20T02:16:58.770Z,100.00
2019-06-20T02:19:27.816Z,100.00
2019-06-20T02:21:56.864Z,100.00
2019-06-20T02:24:26.040Z,100.00
2019-06-20T02:26:55.119Z,100.00
2019-06-20T02:29:24.164Z,100.00
2019-06-20T02:31:53.270Z,100.00
2019-06-20T02:34:22.301Z,100.00
2019-06-20T02:36:51.349Z,100.00
2019-06-20T02:39:20.371Z,100.00
2019-06-20T02:41:49.807Z,100.00
2019-06-20T02:44:30.167Z,100.00
2019-06-20T02:46:50.190Z,100.00
2019-06-20T02:49:19.215Z,100.00
2019-06-20T02:51:50.112Z,100.00
2019-06-20T02:54:19.400Z,100.00
2019-06-20T02:56:48.462Z,100.00
2019-06-20T02:59:17.606Z,100.00
2019-06-20T03:01:46.626Z,100.00
2019-06-20T03:04:15.683Z,100.00
2019-06-20T03:06:45.279Z,100.00
2019-06-20T03:09:14.326Z,100.00
2019-06-20T03:11:43.383Z,100.00
2019-06-20T03:14:12.409Z,100.00
2019-06-20T03:16:41.541Z,100.00
2019-06-20T03:19:10.569Z,100.00
2019-06-20T03:21:39.618Z,100.00
2019-06-20T03:24:08.904Z,100.00
2019-06-20T03:26:37.952Z,100.00
2019-06-20T03:29:07.550Z,100.00
2019-06-20T03:31:36.612Z,100.00
2019-06-20T03:34:05.605Z,100.00
2019-06-20T03:36:34.735Z,100.00
2019-06-20T03:39:05.285Z,100.00
2019-06-20T03:41:34.343Z,100.00
2019-06-20T03:44:03.745Z,100.00
2019-06-20T03:46:32.750Z,100.00
2019-06-20T03:49:02.052Z,100.00
2019-06-20T03:51:31.118Z,100.00
2019-06-20T03:54:00.633Z,100.00
2019-06-20T03:56:29.669Z,100.00
2019-06-20T03:58:58.697Z,100.00
2019-06-20T04:01:27.924Z,100.00
2019-06-20T04:03:56.950Z,100.00
2019-06-20T04:06:26.024Z,100.00
2019-06-20T04:08:55.060Z,100.00
2019-06-20T04:11:24.105Z,100.00
2019-06-20T04:13:53.132Z,100.00
2019-06-20T04:16:22.220Z,100.00
2019-06-20T04:18:51.287Z,100.00
2019-06-20T04:21:20.355Z,100.00
2019-06-20T04:23:49.433Z,100.00
2019-06-20T04:26:18.519Z,100.00
2019-06-20T04:28:47.575Z,100.00
2019-06-20T04:31:16.599Z,100.00
2019-06-20T04:33:45.667Z,100.00
2019-06-20T04:36:15.001Z,100.00
2019-06-20T04:38:44.030Z,100.00
2019-06-20T04:41:13.470Z,100.00
2019-06-20T04:43:42.534Z,100.00
2019-06-20T04:46:13.784Z,100.00
2019-06-20T04:48:42.839Z,100.00
2019-06-20T04:51:11.891Z,100.00
2019-06-20T04:53:40.962Z,100.00
2019-06-20T04:56:09.991Z,100.00
2019-06-20T04:58:39.044Z,100.00
2019-06-20T05:01:08.079Z,100.00
2019-06-20T05:03:37.243Z,100.00
2019-06-20T05:06:06.513Z,100.00
2019-06-20T05:08:35.518Z,100.00
2019-06-20T05:11:04.873Z,100.00
2019-06-20T05:13:33.934Z,100.00
2019-06-20T05:16:04.397Z,100.00
2019-06-20T05:18:33.457Z,100.00
2019-06-20T05:21:02.481Z,100.00
2019-06-20T05:23:31.544Z,100.00
2019-06-20T05:26:00.637Z,100.00
2019-06-20T05:28:29.722Z,100.00
2019-06-20T05:30:58.775Z,100.00
2019-06-20T05:33:28.374Z,100.00
2019-06-20T05:35:57.423Z,100.00
2019-06-20T05:38:26.543Z,100.00
2019-06-20T05:40:55.619Z,100.00
2019-06-20T05:43:24.668Z,100.00
2019-06-20T05:46:08.299Z,100.00
2019-06-20T05:48:25.390Z,100.00
2019-06-20T05:50:54.708Z,100.00
2019-06-20T05:53:23.771Z,100.00
2019-06-20T05:55:52.860Z,100.00
2019-06-20T05:58:21.925Z,100.00
2019-06-20T06:00:51.070Z,100.00
2019-06-20T06:03:20.408Z,100.00
2019-06-20T06:05:49.540Z,100.00
2019-06-20T06:08:18.634Z,100.00
2019-06-20T06:10:47.815Z,100.00
2019-06-20T06:13:16.894Z,100.00
2019-06-20T06:15:45.957Z,100.00
2019-06-20T06:18:15.011Z,100.00
2019-06-20T06:20:45.065Z,100.00
2019-06-20T06:23:14.361Z,100.00
2019-06-20T06:25:43.654Z,100.00
2019-06-20T06:28:12.869Z,100.00
2019-06-20T06:30:41.887Z,100.00
2019-06-20T06:33:10.948Z,100.00
2019-06-20T06:35:39.980Z,100.00
2019-06-20T06:38:09.034Z,100.00
2019-06-20T06:40:38.136Z,100.00
2019-06-20T06:43:07.180Z,100.00
2019-06-20T06:45:36.212Z,100.00
2019-06-20T06:48:05.341Z,100.00
2019-06-20T06:50:34.509Z,100.00
2019-06-20T06:53:03.632Z,100.00
2019-06-20T06:55:32.677Z,100.00
2019-06-20T06:58:01.752Z,100.00
2019-06-20T07:00:30.816Z,100.00
2019-06-20T07:02:59.952Z,100.00
2019-06-20T07:05:29.092Z,100.00
2019-06-20T07:07:58.259Z,100.00
2019-06-20T07:10:27.736Z,100.00
2019-06-20T07:12:56.792Z,100.00
2019-06-20T07:15:26.769Z,98.68
2019-06-20T07:17:55.813Z,99.45
2019-06-20T07:20:25.075Z,100.00
2019-06-20T07:22:54.783Z,98.66
2019-06-20T07:25:23.865Z,93.48
2019-06-20T07:27:52.895Z,94.89
2019-06-20T07:30:22.581Z,96.68
2019-06-20T07:32:51.613Z,96.85
2019-06-20T07:35:20.769Z,94.48
2019-06-20T07:37:49.765Z,91.76
2019-06-20T07:40:18.923Z,86.12
2019-06-20T07:42:48.085Z,85.01
2019-06-20T07:45:19.392Z,82.79
2019-06-20T07:47:48.618Z,75.48
2019-06-20T07:50:18.481Z,79.26
2019-06-20T07:53:01.624Z,74.15
2019-06-20T07:55:18.975Z,79.51
2019-06-20T07:57:48.280Z,79.92
2019-06-20T08:00:17.871Z,82.03
2019-06-20T08:02:47.051Z,79.16
2019-06-20T08:05:16.863Z,76.13
2019-06-20T08:07:46.379Z,76.13
2019-06-20T08:10:18.214Z,76.35
2019-06-20T08:12:47.346Z,77.19
2019-06-20T08:15:17.582Z,78.01
2019-06-20T08:17:46.883Z,79.15
2019-06-20T08:20:18.989Z,77.98
2019-06-20T08:22:48.131Z,79.85
2019-06-20T08:25:17.870Z,80.27
2019-06-20T08:27:50.744Z,74.01
2019-06-20T08:30:25.048Z,76.15
2019-06-20T08:32:57.452Z,75.37
2019-06-20T08:35:28.233Z,81.06
2019-06-20T08:37:59.350Z,78.05
2019-06-20T08:40:30.453Z,79.96
2019-06-20T08:43:00.253Z,80.73
2019-06-20T08:45:32.854Z,82.11
2019-06-20T08:48:02.691Z,82.06
2019-06-20T08:50:32.649Z,78.31
2019-06-20T08:53:01.934Z,77.78
2019-06-20T08:55:31.218Z,73.46
2019-06-20T08:58:01.565Z,68.28
2019-06-20T09:00:33.503Z,64.15
2019-06-20T09:05:32.246Z,56.83
2019-06-20T09:10:37.923Z,63.24
2019-06-20T09:13:07.708Z,72.46
2019-06-20T09:15:37.104Z,67.96
2019-06-20T09:18:07.366Z,73.09
2019-06-20T09:20:37.064Z,72.73
2019-06-20T09:23:06.533Z,71.34
2019-06-20T09:25:36.335Z,72.06
2019-06-20T09:28:06.834Z,74.74
2019-06-20T09:30:37.170Z,74.51
2019-06-20T09:33:06.876Z,69.82
2019-06-20T09:35:36.781Z,66.34
2019-06-20T09:38:06.251Z,74.38
2019-06-20T09:40:35.742Z,69.53
2019-06-20T09:43:05.368Z,67.89
2019-06-20T09:45:34.846Z,64.76
2019-06-20T09:48:04.451Z,65.99
2019-06-20T09:50:34.652Z,67.89
2019-06-20T09:53:03.892Z,63.49
2019-06-20T09:55:33.577Z,67.45
2019-06-20T09:58:02.726Z,71.01
2019-06-20T10:00:32.532Z,74.64
2019-06-20T10:03:01.632Z,75.85
2019-06-20T10:05:31.058Z,78.21
2019-06-20T10:08:00.133Z,79.25
2019-06-20T10:10:30.681Z,81.41
2019-06-20T10:13:00.778Z,83.44
2019-06-20T10:15:35.425Z,83.23
2019-06-20T10:18:05.850Z,83.73
2019-06-20T10:20:38.543Z,86.09
2019-06-20T10:23:06.230Z,82.91
2019-06-20T10:25:35.628Z,79.14
2019-06-20T10:28:05.522Z,80.04
2019-06-20T10:30:34.573Z,79.58
2019-06-20T10:33:04.262Z,83.18
2019-06-20T10:35:33.393Z,78.25
2019-06-20T10:38:02.960Z,76.12
2019-06-20T10:40:32.287Z,77.05
2019-06-20T10:43:01.349Z,77.08
2019-06-20T10:45:32.512Z,73.94
2019-06-20T10:48:01.589Z,71.56
2019-06-20T10:50:31.025Z,69.05
2019-06-20T10:53:00.089Z,66.51
2019-06-20T10:55:29.155Z,67.91
2019-06-20T10:57:58.323Z,70.63
2019-06-20T11:00:31.950Z,72.60
2019-06-20T11:03:00.457Z,72.00
2019-06-20T11:05:29.485Z,74.77
2019-06-20T11:07:58.538Z,72.70
2019-06-20T11:10:28.523Z,74.56
2019-06-20T11:12:57.573Z,73.20
2019-06-20T11:15:27.385Z,68.81
2019-06-20T11:17:57.114Z,64.12
2019-06-20T11:20:26.975Z,67.86
2019-06-20T11:22:56.012Z,70.27
2019-06-20T11:25:25.325Z,69.28
2019-06-20T11:27:54.346Z,71.01
2019-06-20T11:30:29.093Z,71.04
2019-06-20T11:32:58.115Z,72.06
2019-06-20T11:35:27.234Z,75.24
2019-06-20T11:37:56.412Z,74.58
2019-06-20T11:40:26.290Z,79.15
2019-06-20T11:42:55.346Z,79.92
2019-06-20T11:45:25.000Z,81.34
2019-06-20T11:47:54.244Z,79.51
2019-06-20T11:50:23.728Z,81.85
2019-06-20T11:52:52.960Z,80.71
2019-06-20T11:55:22.212Z,82.86
2019-06-20T11:57:51.365Z,84.45
2019-06-20T12:00:21.902Z,84.27
2019-06-20T12:02:51.032Z,84.04
2019-06-20T12:05:20.540Z,83.90
2019-06-20T12:07:50.151Z,88.82
2019-06-20T12:10:20.114Z,90.84
2019-06-20T12:12:49.342Z,94.47
2019-06-20T12:15:19.521Z,100.00
2019-06-20T12:17:49.437Z,100.00
2019-06-20T12:20:19.603Z,100.00
2019-06-20T12:22:50.754Z,100.00
2019-06-20T12:25:21.016Z,100.00
2019-06-20T12:27:50.243Z,100.00
2019-06-20T12:30:21.308Z,97.97
2019-06-20T12:32:50.393Z,100.00
2019-06-20T12:35:22.545Z,100.00
2019-06-20T12:37:52.147Z,100.00
2019-06-20T12:40:22.967Z,100.00
2019-06-20T12:42:52.059Z,100.00
2019-06-20T12:45:21.751Z,100.00
2019-06-20T12:47:51.260Z,100.00
2019-06-20T12:50:20.858Z,100.00
2019-06-20T12:52:50.550Z,100.00
2019-06-20T12:55:19.678Z,100.00
2019-06-20T12:57:49.243Z,100.00
2019-06-20T13:00:20.314Z,100.00
2019-06-20T13:02:49.957Z,100.00
2019-06-20T13:05:20.050Z,100.00
2019-06-20T13:07:50.292Z,100.00
2019-06-20T13:10:20.329Z,100.00
2019-06-20T13:12:49.970Z,100.00
2019-06-20T13:15:20.505Z,100.00
2019-06-20T13:17:50.530Z,100.00
2019-06-20T13:20:21.482Z,100.00
2019-06-20T13:22:50.885Z,100.00
2019-06-20T13:25:20.008Z,100.00
2019-06-20T13:27:50.541Z,100.00
2019-06-20T13:30:20.663Z,100.00
2019-06-20T13:32:49.814Z,100.00
2019-06-20T13:35:20.354Z,98.62
2019-06-20T13:37:50.055Z,98.95
2019-06-20T13:40:20.409Z,100.00
2019-06-20T13:42:50.330Z,100.00
2019-06-20T13:45:26.549Z,100.00
2019-06-20T13:47:56.185Z,100.00
2019-06-20T13:50:26.351Z,100.00
2019-06-20T13:52:55.643Z,100.00
2019-06-20T13:55:24.831Z,100.00
2019-06-20T13:57:54.467Z,100.00
2019-06-20T14:00:25.733Z,100.00
2019-06-20T14:02:54.935Z,100.00
2019-06-20T14:05:24.119Z,100.00
2019-06-20T14:07:54.257Z,100.00
2019-06-20T14:10:24.508Z,100.00
2019-06-20T14:12:54.077Z,100.00
2019-06-20T14:15:24.061Z,100.00
2019-06-20T14:17:55.809Z,100.00
2019-06-20T14:20:25.201Z,100.00
2019-06-20T14:22:54.950Z,100.00
2019-06-20T14:25:24.616Z,100.00
2019-06-20T14:27:54.075Z,100.00
2019-06-20T14:30:25.662Z,100.00
2019-06-20T14:32:56.410Z,100.00
2019-06-20T14:35:25.712Z,100.00
2019-06-20T14:37:55.721Z,100.00
2019-06-20T14:40:24.815Z,100.00
2019-06-20T14:42:54.506Z,100.00
2019-06-20T14:45:23.925Z,100.00
2019-06-20T14:47:53.047Z,100.00
2019-06-20T14:50:22.807Z,100.00
2019-06-20T14:52:52.368Z,100.00
2019-06-20T14:55:22.627Z,100.00
2019-06-20T14:57:52.476Z,100.00
2019-06-20T15:00:22.403Z,100.00
2019-06-20T15:02:54.468Z,100.00
2019-06-20T15:05:22.755Z,100.00
2019-06-20T15:07:53.766Z,100.00
2019-06-20T15:10:22.847Z,100.00
2019-06-20T15:12:53.634Z,100.00
2019-06-20T15:15:22.983Z,100.00
2019-06-20T15:17:54.032Z,100.00
2019-06-20T15:20:22.840Z,100.00
2019-06-20T15:22:52.723Z,100.00
2019-06-20T15:25:22.561Z,100.00
2019-06-20T15:27:53.354Z,100.00
2019-06-20T15:30:22.408Z,100.00
2019-06-20T15:33:04.056Z,100.00
2019-06-20T15:35:22.452Z,100.00
2019-06-20T15:37:54.362Z,100.00
2019-06-20T15:40:25.574Z,100.00
2019-06-20T15:42:55.365Z,100.00
2019-06-20T15:45:25.532Z,100.00
2019-06-20T15:47:54.745Z,100.00
2019-06-20T15:50:23.907Z,100.00
2019-06-20T15:52:52.987Z,100.00
2019-06-20T15:55:22.032Z,100.00
2019-06-20T15:57:54.014Z,100.00
2019-06-20T16:00:22.195Z,100.00
2019-06-20T16:02:51.284Z,100.00
2019-06-20T16:05:20.887Z,100.00
2019-06-20T16:07:49.959Z,100.00
2019-06-20T16:10:19.441Z,100.00
2019-06-20T16:12:48.691Z,100.00
2019-06-20T16:15:22.803Z,100.00
2019-06-20T16:17:52.313Z,100.00
2019-06-20T16:20:22.607Z,100.00
2019-06-20T16:22:52.307Z,100.00
2019-06-20T16:25:22.081Z,100.00
2019-06-20T16:27:51.535Z,100.00
2019-06-20T16:30:21.904Z,100.00
2019-06-20T16:32:51.070Z,100.00
2019-06-20T16:35:20.353Z,100.00
2019-06-20T16:37:49.498Z,100.00
2019-06-20T16:40:21.774Z,100.00
2019-06-20T16:42:50.803Z,100.00
2019-06-20T16:45:20.235Z,100.00
2019-06-20T16:47:49.657Z,100.00
2019-06-20T16:50:18.947Z,100.00
2019-06-20T16:52:47.980Z,100.00
2019-06-20T16:55:17.582Z,100.00
2019-06-20T16:57:46.686Z,100.00
2019-06-20T17:00:16.452Z,100.00
2019-06-20T17:02:45.724Z,100.00
2019-06-20T17:05:15.128Z,100.00
2019-06-20T17:07:44.189Z,100.00
2019-06-20T17:10:14.335Z,100.00
2019-06-20T17:12:43.610Z,100.00
2019-06-20T17:15:13.769Z,100.00
2019-06-20T17:17:42.945Z,99.62
2019-06-20T17:20:12.807Z,98.98
2019-06-20T17:22:43.418Z,99.07
2019-06-20T17:25:13.974Z,99.71
2019-06-20T17:27:43.795Z,98.92
2019-06-20T17:30:15.714Z,100.00
2019-06-20T17:32:44.849Z,100.00
2019-06-20T17:35:15.721Z,100.00
2019-06-20T17:37:45.244Z,100.00
2019-06-20T17:40:16.401Z,100.00
2019-06-20T17:42:45.674Z,100.00
2019-06-20T17:45:16.001Z,100.00
2019-06-20T17:47:45.073Z,100.00
2019-06-20T17:50:15.077Z,100.00
2019-06-20T17:52:44.129Z,100.00
2019-06-20T17:55:14.028Z,100.00
2019-06-20T17:57:43.304Z,100.00
2019-06-20T18:00:17.086Z,100.00
2019-06-20T18:02:46.301Z,100.00
2019-06-20T18:05:16.414Z,100.00
2019-06-20T18:07:45.894Z,100.00
2019-06-20T18:10:16.340Z,100.00
2019-06-20T18:12:45.386Z,100.00
2019-06-20T18:15:15.292Z,100.00
2019-06-20T18:17:44.322Z,100.00
2019-06-20T18:20:14.409Z,100.00
2019-06-20T18:22:43.527Z,100.00
2019-06-20T18:25:13.395Z,100.00
2019-06-20T18:27:42.580Z,100.00
2019-06-20T18:30:12.652Z,100.00
2019-06-20T18:32:41.842Z,100.00
2019-06-20T18:35:11.795Z,100.00
2019-06-20T18:37:40.983Z,100.00
2019-06-20T18:40:12.206Z,100.00
2019-06-20T18:42:41.322Z,100.00
2019-06-20T18:45:12.687Z,100.00
2019-06-20T18:47:41.751Z,100.00
2019-06-20T18:50:11.102Z,100.00
2019-06-20T18:52:51.531Z,100.00
2019-06-20T18:55:11.647Z,100.00
2019-06-20T18:57:40.853Z,100.00
2019-06-20T19:00:13.213Z,100.00
2019-06-20T19:02:42.365Z,100.00
2019-06-20T19:05:12.255Z,100.00
2019-06-20T19:07:41.648Z,100.00
2019-06-20T19:10:11.520Z,100.00
2019-06-20T19:12:41.150Z,100.00
2019-06-20T19:15:10.829Z,100.00
2019-06-20T19:17:39.907Z,100.00
2019-06-20T19:20:09.424Z,100.00
2019-06-20T19:22:38.540Z,100.00
2019-06-20T19:25:09.204Z,100.00
2019-06-20T19:27:46.125Z,100.00
2019-06-20T19:30:10.685Z,100.00
2019-06-20T19:32:39.919Z,100.00
2019-06-20T19:35:10.532Z,100.00
2019-06-20T19:37:39.783Z,100.00
2019-06-20T19:40:10.068Z,100.00
2019-06-20T19:42:39.114Z,100.00
2019-06-20T19:45:11.635Z,100.00
2019-06-20T19:47:41.039Z,100.00
2019-06-20T19:50:11.543Z,100.00
2019-06-20T19:52:40.960Z,100.00
2019-06-20T19:55:11.265Z,100.00
2019-06-20T19:57:40.368Z,100.00
2019-06-20T20:00:11.327Z,100.00
2019-06-20T20:02:40.481Z,100.00
2019-06-20T20:05:18.933Z,100.00
2019-06-20T20:07:40.894Z,100.00
2019-06-20T20:10:10.772Z,100.00
2019-06-20T20:12:39.818Z,100.00
2019-06-20T20:15:09.317Z,100.00
2019-06-20T20:17:38.411Z,100.00
2019-06-20T20:20:08.308Z,100.00
2019-06-20T20:22:37.485Z,100.00
2019-06-20T20:25:08.000Z,100.00
2019-06-20T20:27:37.053Z,100.00
2019-06-20T20:30:11.171Z,100.00
2019-06-20T20:32:40.695Z,100.00
2019-06-20T20:35:09.986Z,100.00
2019-06-20T20:37:39.019Z,100.00
2019-06-20T20:40:09.628Z,100.00
2019-06-20T20:42:38.659Z,100.00
2019-06-20T20:45:08.792Z,100.00
2019-06-20T20:47:37.996Z,100.00
2019-06-20T20:50:08.424Z,100.00
2019-06-20T20:52:37.750Z,100.00
2019-06-20T20:55:11.165Z,100.00
2019-06-20T20:57:40.196Z,100.00
2019-06-20T21:00:16.691Z,100.00
2019-06-20T21:02:45.821Z,100.00
2019-06-20T21:05:14.887Z,100.00
2019-06-20T21:07:43.936Z,100.00
2019-06-20T21:10:13.318Z,100.00
2019-06-20T21:12:42.406Z,100.00
2019-06-20T21:15:11.733Z,100.00
2019-06-20T21:17:40.811Z,100.00
2019-06-20T21:20:10.904Z,100.00
2019-06-20T21:22:39.957Z,100.00
2019-06-20T21:25:10.346Z,100.00
2019-06-20T21:27:39.418Z,100.00
2019-06-20T21:30:10.092Z,100.00
2019-06-20T21:32:39.149Z,100.00
2019-06-20T21:35:09.236Z,100.00
2019-06-20T21:37:38.754Z,100.00
2019-06-20T21:40:09.235Z,100.00
2019-06-20T21:42:38.417Z,100.00
2019-06-20T21:45:08.406Z,100.00
2019-06-20T21:47:38.028Z,100.00
2019-06-20T21:50:08.095Z,100.00
2019-06-20T21:52:37.827Z,100.00
2019-06-20T21:55:09.313Z,100.00
2019-06-20T21:57:38.561Z,100.00
2019-06-20T22:00:13.852Z,100.00
2019-06-20T22:02:43.049Z,100.00
2019-06-20T22:05:12.638Z,100.00
2019-06-20T22:07:41.847Z,100.00
2019-06-20T22:10:11.231Z,100.00
2019-06-20T22:12:40.286Z,100.00
2019-06-20T22:15:09.851Z,100.00
2019-06-20T22:17:39.336Z,100.00
2019-06-20T22:20:09.139Z,100.00
2019-06-20T22:22:38.207Z,100.00
2019-06-20T22:25:08.867Z,100.00
2019-06-20T22:27:38.001Z,100.00
2019-06-20T22:30:12.409Z,100.00
2019-06-20T22:32:41.564Z,100.00
2019-06-20T22:35:11.057Z,100.00
2019-06-20T22:37:40.225Z,100.00
2019-06-20T22:40:10.228Z,100.00
2019-06-20T22:42:39.249Z,100.00
2019-06-20T22:45:10.447Z,100.00
2019-06-20T22:47:39.548Z,100.00
2019-06-20T22:50:09.565Z,100.00
2019-06-20T22:52:38.596Z,100.00
2019-06-20T22:55:08.905Z,100.00
2019-06-20T22:57:38.116Z,100.00
2019-06-20T23:00:09.439Z,100.00
2019-06-20T23:02:38.549Z,100.00
2019-06-20T23:05:08.853Z,100.00
2019-06-20T23:07:37.896Z,100.00
2019-06-20T23:10:10.900Z,100.00
2019-06-20T23:12:39.455Z,100.00
2019-06-20T23:15:09.853Z,100.00
2019-06-20T23:17:38.928Z,100.00
2019-06-20T23:20:10.191Z,100.00
2019-06-20T23:22:39.263Z,100.00
2019-06-20T23:25:08.865Z,100.00
2019-06-20T23:27:37.946Z,100.00
2019-06-20T23:30:11.960Z,100.00
2019-06-20T23:32:41.025Z,100.00
2019-06-20T23:35:11.830Z,100.00
2019-06-20T23:37:40.860Z,100.00
2019-06-20T23:40:11.300Z,100.00
2019-06-20T23:42:40.358Z,100.00
2019-06-20T23:45:10.661Z,100.00
2019-06-20T23:47:39.759Z,100.00
2019-06-20T23:50:20.040Z,100.00
2019-06-20T23:53:09.833Z,100.00
2019-06-20T23:55:38.982Z,100.00
2019-06-20T23:58:08.199Z,100.00
